Time;durP1;ratioP1;P1;durP2;ratioP2;P2;SDS_P1;SDS_P2;PMS_P1;PMS_P2;Temp;Humidity;BMP_temperature;BMP_pressure;BME280_temperature;BME280_humidity;BME280_pressure;Samples;Min_cycle;Max_cycle;Signal;HPM_P1;HPM_P2
2023/06/16 00:01:05;;;;;;;4.05;3.10;;;19.30;48.20;;;;;;5029625;28;20644;-48
2023/06/16 00:03:33;;;;;;;3.90;3.42;;;19.20;48.20;;;;;;5022141;28;20464;-48
2023/06/16 00:06:14;;;;;;;4.47;3.35;;;19.20;48.20;;;;;;5028942;28;20056;-47
2023/06/16 00:08:45;;;;;;;6.15;3.80;;;19.10;48.30;;;;;;5029957;28;20494;-48
2023/06/16 00:11:12;;;;;;;6.70;3.33;;;19.10;48.80;;;;;;5029398;28;20037;-47
2023/06/16 00:13:39;;;;;;;3.53;3.22;;;19.00;48.80;;;;;;5027192;28;20116;-47
2023/06/16 00:16:10;;;;;;;6.15;4.13;;;19.00;48.80;;;;;;5029286;28;20076;-45
2023/06/16 00:18:40;;;;;;;4.75;3.53;;;19.00;48.80;;;;;;5029383;28;20055;-48
2023/06/16 00:21:09;;;;;;;4.95;3.60;;;18.90;48.90;;;;;;5026899;28;20046;-48
2023/06/16 00:23:36;;;;;;;5.70;3.50;;;18.90;48.80;;;;;;5028088;28;20053;-47
2023/06/16 00:26:05;;;;;;;5.50;3.85;;;18.80;48.70;;;;;;5029080;28;20590;-46
2023/06/16 00:28:34;;;;;;;4.85;3.50;;;18.80;48.70;;;;;;5029660;28;20061;-47
2023/06/16 00:31:00;;;;;;;5.88;3.25;;;18.70;48.80;;;;;;5008669;28;20077;-46
2023/06/16 00:33:30;;;;;;;3.58;3.22;;;18.70;49.00;;;;;;5028309;28;20044;-49
2023/06/16 00:35:59;;;;;;;4.65;4.25;;;18.60;49.00;;;;;;5011244;28;20057;-46
2023/06/16 00:38:28;;;;;;;5.40;3.35;;;18.60;49.20;;;;;;5029258;28;20044;-49
2023/06/16 00:40:55;;;;;;;6.07;3.58;;;18.60;49.50;;;;;;5005112;28;20060;-49
2023/06/16 00:43:28;;;;;;;4.18;3.13;;;18.50;49.20;;;;;;5027293;28;20490;-50
2023/06/16 00:45:57;;;;;;;5.25;3.88;;;18.50;49.60;;;;;;5011327;28;20041;-47
2023/06/16 00:48:27;;;;;;;3.53;3.22;;;18.50;49.50;;;;;;5011760;28;20033;-48
2023/06/16 00:50:57;;;;;;;4.40;3.38;;;18.40;49.60;;;;;;5003010;28;20042;-48
2023/06/16 00:53:25;;;;;;;4.72;3.42;;;18.40;50.20;;;;;;5007619;28;20073;-48
2023/06/16 00:55:52;;;;;;;4.35;3.95;;;18.40;50.70;;;;;;5027754;28;20084;-47
2023/06/16 00:58:21;;;;;;;5.03;3.63;;;18.30;50.10;;;;;;5028948;28;20099;-46
2023/06/16 01:00:51;;;;;;;5.38;3.75;;;18.30;50.20;;;;;;5028942;28;20414;-48
2023/06/16 01:03:22;;;;;;;3.88;3.35;;;18.30;50.10;;;;;;5005405;28;20077;-50
2023/06/16 01:05:49;;;;;;;4.97;3.97;;;18.20;50.00;;;;;;5028224;28;20072;-51
2023/06/16 01:08:40;;;;;;;5.05;3.78;;;18.20;49.90;;;;;;5028158;28;20406;-47
2023/06/16 01:11:18;;;;;;;4.78;4.28;;;18.20;50.30;;;;;;5023236;28;20076;-48
2023/06/16 01:14:02;;;;;;;5.45;3.88;;;18.20;50.40;;;;;;5021689;28;20483;-47
2023/06/16 01:16:31;;;;;;;4.40;3.92;;;18.10;50.60;;;;;;5009782;28;20485;-48
2023/06/16 01:19:10;;;;;;;4.18;3.75;;;18.10;50.20;;;;;;5008801;28;20049;-50
2023/06/16 01:21:55;;;;;;;4.45;4.03;;;18.00;50.70;;;;;;5024561;28;20045;-48
2023/06/16 01:24:23;;;;;;;4.20;3.80;;;18.00;50.70;;;;;;5007144;28;20057;-49
2023/06/16 01:26:54;;;;;;;4.43;3.67;;;18.00;50.30;;;;;;5028224;28;20045;-46
2023/06/16 01:29:23;;;;;;;4.03;3.35;;;18.00;50.50;;;;;;5029096;28;20045;-47
2023/06/16 01:32:00;;;;;;;4.20;3.78;;;17.90;50.40;;;;;;5008455;28;20056;-49
2023/06/16 01:34:28;;;;;;;4.30;3.63;;;17.90;50.80;;;;;;5011207;28;20498;-51
2023/06/16 01:36:58;;;;;;;4.72;4.07;;;17.80;50.40;;;;;;5028430;28;20037;-48
2023/06/16 01:39:27;;;;;;;4.32;3.92;;;17.80;50.50;;;;;;5028842;28;20129;-49
2023/06/16 01:41:55;;;;;;;4.15;3.75;;;17.80;50.60;;;;;;5025587;28;20045;-48
2023/06/16 01:44:22;;;;;;;3.72;3.40;;;17.80;50.70;;;;;;5026876;28;20049;-46
2023/06/16 01:46:55;;;;;;;4.22;3.88;;;17.70;50.60;;;;;;5028150;28;20045;-50
2023/06/16 01:49:23;;;;;;;3.97;3.22;;;17.70;50.60;;;;;;5028007;28;20092;-48
2023/06/16 01:51:50;;;;;;;6.85;4.00;;;17.70;50.70;;;;;;5011738;28;20053;-48
2023/06/16 01:54:16;;;;;;;5.40;4.25;;;17.60;50.70;;;;;;5020294;28;20033;-50
2023/06/16 01:56:45;;;;;;;4.20;3.58;;;17.60;50.70;;;;;;5013896;28;20060;-49
2023/06/16 01:59:14;;;;;;;5.07;4.10;;;17.60;50.70;;;;;;5014001;28;20053;-47
2023/06/16 02:01:51;;;;;;;6.25;3.60;;;17.50;51.00;;;;;;5015439;28;20064;-48
2023/06/16 02:04:21;;;;;;;4.13;3.72;;;17.50;51.20;;;;;;5004714;28;20046;-46
2023/06/16 02:07:08;;;;;;;5.07;4.13;;;17.50;51.00;;;;;;5028503;28;20049;-47
2023/06/16 02:09:38;;;;;;;4.68;3.67;;;17.50;51.60;;;;;;5031180;28;20076;-51
2023/06/16 02:12:06;;;;;;;7.40;3.60;;;17.40;51.00;;;;;;5011113;28;20045;-46
2023/06/16 02:14:40;;;;;;;5.25;4.45;;;17.40;51.10;;;;;;5023545;28;20112;-47
2023/06/16 02:17:12;;;;;;;6.70;4.75;;;17.30;51.20;;;;;;5032114;28;20041;-47
2023/06/16 02:19:43;;;;;;;4.88;3.40;;;17.30;51.20;;;;;;5008016;28;20081;-49
2023/06/16 02:22:11;;;;;;;;;;;17.20;51.00;;;;;;5015327;28;20046;-46
2023/06/16 02:24:42;;;;;;;5.05;3.53;;;17.30;50.60;;;;;;5008776;28;20019;-47
2023/06/16 02:27:09;;;;;;;4.30;3.90;;;17.20;50.60;;;;;;5039829;28;20047;-46
2023/06/16 02:29:36;;;;;;;4.43;3.72;;;17.20;51.00;;;;;;5030684;28;20091;-47
2023/06/16 02:32:06;;;;;;;6.13;4.03;;;17.10;51.10;;;;;;5026513;28;20057;-46
2023/06/16 02:34:36;;;;;;;3.55;3.25;;;17.10;51.30;;;;;;5030684;28;20144;-48
2023/06/16 02:37:03;;;;;;;4.65;3.70;;;17.00;51.30;;;;;;5013150;28;20094;-47
2023/06/16 02:39:30;;;;;;;5.40;3.80;;;17.00;51.30;;;;;;5012330;28;20580;-47
2023/06/16 02:42:01;;;;;;;3.85;3.38;;;17.00;51.30;;;;;;5029494;28;20045;-48
2023/06/16 02:44:27;;;;;;;3.80;3.45;;;17.00;51.60;;;;;;5012820;28;20152;-50
2023/06/16 02:46:57;;;;;;;4.03;3.60;;;16.90;51.40;;;;;;5031001;28;20045;-47
2023/06/16 02:49:26;;;;;;;5.57;3.78;;;16.90;51.40;;;;;;5011300;28;20041;-50
2023/06/16 02:51:55;;;;;;;5.25;4.15;;;16.90;51.50;;;;;;5013867;28;20061;-50
2023/06/16 02:54:29;;;;;;;3.58;3.28;;;16.80;51.40;;;;;;5023068;28;20045;-48
2023/06/16 02:56:57;;;;;;;4.85;3.92;;;16.80;52.00;;;;;;5013595;28;20119;-47
2023/06/16 02:59:41;;;;;;;3.95;3.40;;;16.80;51.60;;;;;;5005102;28;20100;-47
2023/06/16 03:02:08;;;;;;;5.07;4.22;;;16.70;51.50;;;;;;5031178;28;20076;-50
2023/06/16 03:04:52;;;;;;;4.15;3.72;;;16.70;51.60;;;;;;5004105;28;20061;-48
2023/06/16 03:07:31;;;;;;;6.07;3.95;;;16.70;51.60;;;;;;5028818;28;20052;-48
2023/06/16 03:10:08;;;;;;;6.20;3.75;;;16.70;51.80;;;;;;5012299;28;20524;-49
2023/06/16 03:12:56;;;;;;;5.38;4.10;;;16.70;51.70;;;;;;5008877;28;20099;-50
2023/06/16 03:15:23;;;;;;;6.05;3.92;;;16.60;51.60;;;;;;5031118;28;20041;-46
2023/06/16 03:17:50;;;;;;;4.13;3.72;;;16.60;51.80;;;;;;5012336;28;20069;-46
2023/06/16 03:20:17;;;;;;;5.00;3.80;;;16.60;51.80;;;;;;5010735;28;20046;-46
2023/06/16 03:22:53;;;;;;;5.35;3.88;;;16.60;52.00;;;;;;5007758;28;20041;-50
2023/06/16 03:25:21;;;;;;;7.15;3.65;;;16.50;52.00;;;;;;5005290;28;20080;-51
2023/06/16 03:27:50;;;;;;;4.78;4.28;;;16.50;52.10;;;;;;5012508;28;20041;-47
2023/06/16 03:30:20;;;;;;;5.70;4.18;;;16.50;52.20;;;;;;5030477;28;20034;-46
2023/06/16 03:33:07;;;;;;;3.75;3.45;;;16.50;52.30;;;;;;5027535;28;20057;-47
2023/06/16 03:35:45;;;;;;;5.13;3.92;;;16.40;52.30;;;;;;5005593;28;20046;-49
2023/06/16 03:38:20;;;;;;;5.93;4.05;;;16.40;52.40;;;;;;5011897;28;20049;-50
2023/06/16 03:40:48;;;;;;;4.85;3.95;;;16.40;52.50;;;;;;5024442;23;20096;31
2023/06/16 03:43:20;;;;;;;6.07;4.20;;;16.40;52.60;;;;;;4952361;28;20054;-44
2023/06/16 03:45:47;;;;;;;6.38;4.00;;;16.40;53.00;;;;;;4954723;28;20049;-46
2023/06/16 03:48:13;;;;;;;4.68;3.75;;;16.40;53.00;;;;;;4970107;28;20050;-45
2023/06/16 03:50:46;;;;;;;4.97;3.70;;;16.40;53.00;;;;;;4953263;28;20500;-44
2023/06/16 03:53:27;;;;;;;5.78;3.80;;;16.40;53.10;;;;;;4968332;28;20221;-45
2023/06/16 03:55:58;;;;;;;5.43;4.15;;;16.40;53.10;;;;;;4965656;28;20439;-46
2023/06/16 03:58:25;;;;;;;4.70;4.30;;;16.40;53.30;;;;;;4953883;28;20755;-44
2023/06/16 04:00:52;;;;;;;4.38;3.97;;;16.40;53.40;;;;;;4970191;28;20418;-47
2023/06/16 04:03:21;;;;;;;4.88;3.75;;;16.40;53.50;;;;;;4965127;28;20051;-46
2023/06/16 04:05:48;;;;;;;7.55;4.07;;;16.40;53.60;;;;;;4970527;28;20074;-47
2023/06/16 04:08:18;;;;;;;5.88;4.18;;;16.40;53.60;;;;;;4969897;28;20043;-44
2023/06/16 04:10:47;;;;;;;4.40;3.97;;;16.40;54.10;;;;;;4970689;28;20043;-46
2023/06/16 04:13:13;;;;;;;4.80;4.10;;;16.40;54.00;;;;;;4967709;28;20444;-46
2023/06/16 04:15:42;;;;;;;5.47;4.03;;;16.40;54.10;;;;;;4964730;28;20073;-44
2023/06/16 04:18:18;;;;;;;5.32;4.00;;;16.40;54.10;;;;;;4966419;28;20051;-45
2023/06/16 04:20:47;;;;;;;4.95;4.22;;;16.40;54.20;;;;;;4966962;28;20141;-45
2023/06/16 04:23:17;;;;;;;5.43;4.22;;;16.50;54.40;;;;;;4968690;28;20060;-46
2023/06/16 04:25:45;;;;;;;5.35;4.20;;;16.50;54.70;;;;;;4963907;28;20050;-47
2023/06/16 04:28:14;;;;;;;4.60;4.20;;;16.50;54.90;;;;;;4969175;28;20646;-46
2023/06/16 04:30:51;;;;;;;4.90;4.40;;;16.50;55.10;;;;;;4946280;28;20041;-44
2023/06/16 04:33:22;;;;;;;5.40;4.90;;;16.60;55.30;;;;;;4952018;28;20098;-45
2023/06/16 04:35:52;;;;;;;6.78;4.63;;;16.60;55.40;;;;;;4969740;28;20051;-44
2023/06/16 04:38:33;;;;;;;6.63;4.82;;;16.60;55.60;;;;;;4967938;28;20047;-45
2023/06/16 04:41:03;;;;;;;7.20;4.68;;;16.70;55.80;;;;;;4967590;28;20062;-48
2023/06/16 04:43:29;;;;;;;4.97;4.32;;;16.80;56.10;;;;;;4951679;28;20077;-45
2023/06/16 04:45:58;;;;;;;5.32;4.68;;;16.80;56.80;;;;;;4952435;28;20070;-45
2023/06/16 04:48:25;;;;;;;8.07;4.43;;;16.90;56.50;;;;;;4952918;28;20094;-44
2023/06/16 04:50:57;;;;;;;6.45;4.80;;;16.90;56.70;;;;;;4966339;28;20456;-46
2023/06/16 04:53:25;;;;;;;4.15;3.85;;;17.00;56.90;;;;;;4966933;28;20439;-46
2023/06/16 04:55:52;;;;;;;5.07;4.60;;;17.00;57.50;;;;;;4972209;28;20051;-45
2023/06/16 04:58:19;;;;;;;6.07;4.93;;;17.10;57.20;;;;;;4962609;28;20460;-45
2023/06/16 05:00:46;;;;;;;9.70;4.97;;;17.20;57.50;;;;;;4971260;28;20030;-46
2023/06/16 05:03:16;;;;;;;5.15;4.43;;;17.20;57.60;;;;;;4970323;28;20077;-46
2023/06/16 05:05:43;;;;;;;6.88;5.07;;;17.30;57.70;;;;;;4945344;28;20034;-46
2023/06/16 05:08:11;;;;;;;7.53;5.45;;;17.40;57.90;;;;;;4952145;28;20051;-45
2023/06/16 05:10:38;;;;;;;7.13;5.40;;;17.40;58.00;;;;;;4966218;28;20857;-49
2023/06/16 05:13:05;;;;;;;6.32;4.75;;;17.50;58.10;;;;;;4969900;28;20575;-49
2023/06/16 05:15:31;;;;;;;8.85;5.18;;;17.60;58.20;;;;;;4970784;28;20042;-46
2023/06/16 05:17:59;;;;;;;6.93;4.70;;;17.70;58.40;;;;;;4977237;28;20173;-47
2023/06/16 05:20:26;;;;;;;6.30;5.00;;;17.70;58.40;;;;;;4967471;28;20427;-48
2023/06/16 05:22:53;;;;;;;4.80;4.40;;;17.80;58.40;;;;;;4965193;28;20082;-47
2023/06/16 05:25:22;;;;;;;5.90;5.30;;;17.90;58.50;;;;;;4953396;28;20050;-45
2023/06/16 05:27:49;;;;;;;8.60;5.00;;;18.00;58.50;;;;;;4971826;28;20058;-46
2023/06/16 05:30:17;;;;;;;6.07;5.30;;;18.00;58.50;;;;;;4972898;28;20406;-45
2023/06/16 05:32:44;;;;;;;5.20;4.63;;;18.10;58.50;;;;;;4971579;28;20411;-49
2023/06/16 05:35:11;;;;;;;6.30;5.00;;;18.20;58.60;;;;;;4966061;28;20085;-46
2023/06/16 05:37:44;;;;;;;6.95;5.93;;;18.30;58.60;;;;;;4964203;28;20055;-49
2023/06/16 05:40:11;;;;;;;5.63;5.13;;;18.40;59.10;;;;;;4972007;28;20064;-45
2023/06/16 05:42:38;;;;;;;6.82;4.82;;;18.40;58.80;;;;;;4953811;28;20042;-47
2023/06/16 05:45:06;;;;;;;5.65;5.13;;;18.50;58.80;;;;;;4965833;28;20050;-49
2023/06/16 05:47:33;;;;;;;7.55;4.82;;;18.60;58.90;;;;;;4954995;28;20121;-49
2023/06/16 05:50:00;;;;;;;6.88;5.47;;;18.60;58.90;;;;;;4973091;28;20042;-45
2023/06/16 05:52:27;;;;;;;5.47;4.82;;;18.70;58.80;;;;;;4956445;28;20474;-48
2023/06/16 05:54:54;;;;;;;6.60;4.93;;;18.80;58.90;;;;;;4967575;28;20066;-47
2023/06/16 05:57:30;;;;;;;6.35;4.95;;;18.80;58.60;;;;;;4971473;28;20050;-49
2023/06/16 05:59:56;;;;;;;7.05;5.13;;;19.00;58.20;;;;;;4974035;28;20414;-48
2023/06/16 06:02:25;;;;;;;6.18;4.72;;;19.00;58.20;;;;;;4965291;28;20578;-47
2023/06/16 06:04:55;;;;;;;6.22;4.65;;;19.10;58.00;;;;;;4973040;28;20043;-47
2023/06/16 06:07:22;;;;;;;5.60;5.10;;;19.10;57.70;;;;;;4969690;28;20050;-50
2023/06/16 06:09:49;;;;;;;6.90;5.00;;;19.20;57.40;;;;;;4971438;28;20047;-47
2023/06/16 06:12:17;;;;;;;9.50;7.07;;;19.30;56.10;;;;;;4969664;28;20035;-48
2023/06/16 06:14:44;;;;;;;6.40;5.75;;;19.40;55.30;;;;;;4971672;28;20031;-49
2023/06/16 06:17:11;;;;;;;8.30;5.10;;;19.50;55.20;;;;;;4974043;28;20047;-47
2023/06/16 06:19:37;;;;;;;7.18;4.75;;;19.50;54.50;;;;;;4954253;28;20507;-46
2023/06/16 06:22:04;;;;;;;8.65;5.72;;;19.60;54.90;;;;;;4968448;28;20519;-49
2023/06/16 06:24:31;;;;;;;7.63;5.57;;;19.70;54.80;;;;;;4949969;28;20055;-46
2023/06/16 06:26:58;;;;;;;6.85;4.93;;;19.80;54.20;;;;;;4971764;28;20043;-45
2023/06/16 06:29:25;;;;;;;5.47;4.85;;;19.90;53.70;;;;;;4971756;28;20043;-46
2023/06/16 06:31:52;;;;;;;6.45;4.85;;;20.00;53.20;;;;;;4971938;28;20689;-45
2023/06/16 06:34:19;;;;;;;6.55;4.90;;;20.00;52.80;;;;;;4970887;28;20043;-48
2023/06/16 06:36:48;;;;;;;6.40;4.97;;;20.10;52.60;;;;;;4951779;28;20047;-48
2023/06/16 06:39:16;;;;;;;6.28;5.22;;;20.20;52.60;;;;;;4955658;28;20082;-46
2023/06/16 06:41:43;;;;;;;5.18;4.03;;;20.30;52.40;;;;;;4965770;28;20689;-48
2023/06/16 06:44:15;;;;;;;4.78;4.15;;;20.40;53.00;;;;;;4950163;28;20582;-46
2023/06/16 06:46:49;;;;;;;5.50;4.45;;;20.40;52.20;;;;;;4971510;28;20066;-50
2023/06/16 06:49:17;;;;;;;6.88;5.05;;;20.50;51.80;;;;;;4964586;28;20054;-46
2023/06/16 06:51:44;;;;;;;6.22;3.97;;;20.60;51.60;;;;;;4971404;28;20138;-48
2023/06/16 06:54:11;;;;;;;5.40;4.20;;;20.60;51.40;;;;;;4968021;28;20039;-47
2023/06/16 06:56:38;;;;;;;7.57;4.68;;;20.70;51.00;;;;;;4971252;28;20507;-47
2023/06/16 06:59:05;;;;;;;5.28;4.28;;;20.70;50.70;;;;;;4972576;28;20066;-48
2023/06/16 07:01:31;;;;;;;5.97;4.30;;;20.80;50.30;;;;;;4968986;28;20077;-47
2023/06/16 07:04:02;;;;;;;6.60;4.10;;;20.90;50.00;;;;;;4971552;28;20058;-49
2023/06/16 07:06:29;;;;;;;6.40;4.35;;;21.00;49.80;;;;;;4975950;28;20073;-49
2023/06/16 07:08:58;;;;;;;6.80;5.05;;;21.10;49.60;;;;;;4972397;28;20114;-46
2023/06/16 07:11:25;;;;;;;5.93;3.35;;;21.10;49.70;;;;;;4969696;28;20113;-48
2023/06/16 07:13:51;;;;;;;4.50;3.83;;;21.20;49.50;;;;;;4968053;28;20130;-46
2023/06/16 07:16:19;;;;;;;4.18;3.75;;;21.20;49.40;;;;;;4972316;28;20047;-45
2023/06/16 07:18:46;;;;;;;5.82;5.22;;;21.30;49.00;;;;;;4971608;28;20046;-47
2023/06/16 07:21:12;;;;;;;6.50;4.55;;;21.40;48.70;;;;;;4968832;28;20047;-48
2023/06/16 07:23:39;;;;;;;7.55;4.60;;;21.50;48.60;;;;;;4969742;28;20121;-46
2023/06/16 07:26:06;;;;;;;6.18;4.60;;;21.50;48.30;;;;;;4967525;28;20082;-47
2023/06/16 07:28:32;;;;;;;5.88;4.13;;;21.60;47.90;;;;;;4971416;28;20117;-48
2023/06/16 07:30:59;;;;;;;5.55;3.78;;;21.70;47.30;;;;;;4967480;28;20131;-46
2023/06/16 07:33:26;;;;;;;4.55;4.05;;;21.70;46.70;;;;;;4972326;28;20442;-47
2023/06/16 07:35:53;;;;;;;4.40;3.67;;;21.80;46.50;;;;;;4971565;28;20062;-49
2023/06/16 07:38:20;;;;;;;4.93;4.40;;;21.90;46.10;;;;;;4965925;28;20121;-46
2023/06/16 07:40:47;;;;;;;7.43;4.00;;;21.90;45.90;;;;;;4967414;28;20070;-48
2023/06/16 07:43:13;;;;;;;8.07;4.28;;;22.00;45.50;;;;;;4963709;28;20093;-45
2023/06/16 07:45:41;;;;;;;6.30;3.80;;;22.00;45.50;;;;;;4964076;28;20138;-46
2023/06/16 07:48:08;;;;;;;6.75;3.88;;;22.10;45.00;;;;;;4971941;28;20142;-47
2023/06/16 07:50:36;;;;;;;4.60;3.70;;;22.20;45.40;;;;;;4970635;28;20500;-46
2023/06/16 07:53:02;;;;;;;8.95;3.85;;;22.30;45.20;;;;;;4975782;28;20042;-48
2023/06/16 07:55:29;;;;;;;5.00;3.80;;;22.30;45.50;;;;;;4964768;28;20039;-46
2023/06/16 07:57:56;;;;;;;4.00;3.60;;;22.40;44.90;;;;;;4972191;28;20057;-49
2023/06/16 08:00:23;;;;;;;3.35;3.05;;;22.50;44.60;;;;;;4970112;28;20043;-45
2023/06/16 08:02:50;;;;;;;5.00;3.53;;;22.50;44.20;;;;;;4965327;28;20044;-48
2023/06/16 08:05:18;;;;;;;6.75;4.85;;;22.60;44.30;;;;;;4971231;28;20062;-47
2023/06/16 08:07:45;;;;;;;3.92;3.50;;;22.70;44.00;;;;;;4971111;28;20078;-46
2023/06/16 08:10:13;;;;;;;5.03;3.33;;;22.70;44.10;;;;;;4969692;28;20617;-49
2023/06/16 08:12:43;;;;;;;5.07;3.67;;;22.80;44.10;;;;;;4965990;28;20078;-48
2023/06/16 08:15:12;;;;;;;3.42;3.13;;;22.80;43.70;;;;;;4970389;28;20042;-48
2023/06/16 08:17:40;;;;;;;3.53;3.05;;;22.90;43.20;;;;;;4971711;28;20117;-48
2023/06/16 08:20:09;;;;;;;4.40;3.25;;;23.00;42.70;;;;;;4969378;28;20440;-49
2023/06/16 08:22:36;;;;;;;4.00;3.53;;;23.00;42.50;;;;;;4967263;28;20476;-46
2023/06/16 08:25:04;;;;;;;4.57;3.28;;;23.10;42.30;;;;;;4967915;28;20062;-48
2023/06/16 08:27:31;;;;;;;4.10;3.55;;;23.20;42.00;;;;;;4970038;28;20043;-47
2023/06/16 08:29:58;;;;;;;3.72;3.25;;;23.20;42.00;;;;;;4962277;28;20066;-46
2023/06/16 08:32:24;;;;;;;5.03;3.80;;;23.30;40.80;;;;;;4971143;28;20043;-47
2023/06/16 08:34:51;;;;;;;3.78;3.45;;;23.30;40.80;;;;;;4970348;28;20106;-47
2023/06/16 08:37:18;;;;;;;6.00;4.35;;;23.40;40.50;;;;;;4967890;28;20047;-45
2023/06/16 08:39:55;;;;;;;5.45;3.90;;;23.40;40.10;;;;;;4965773;28;20050;-46
2023/06/16 08:42:23;;;;;;;5.18;3.83;;;23.50;40.80;;;;;;4971229;28;20046;-46
2023/06/16 08:44:52;;;;;;;6.60;3.63;;;23.60;40.10;;;;;;4970893;28;20047;-48
2023/06/16 08:47:19;;;;;;;6.03;3.67;;;23.60;39.40;;;;;;4970676;28;20062;-48
2023/06/16 08:49:46;;;;;;;4.35;3.35;;;23.70;39.30;;;;;;4975098;28;20700;-46
2023/06/16 08:52:16;;;;;;;4.55;3.55;;;23.80;38.90;;;;;;4970467;28;20077;-47
2023/06/16 08:54:57;;;;;;;6.40;3.47;;;23.80;38.10;;;;;;4964587;28;21867;-48
2023/06/16 08:57:25;;;;;;;4.85;2.97;;;23.90;37.90;;;;;;4970422;28;20066;-47
2023/06/16 08:59:56;;;;;;;6.88;3.88;;;24.00;37.80;;;;;;4970066;28;20066;-49
2023/06/16 09:02:29;;;;;;;4.95;3.85;;;24.00;37.90;;;;;;4973198;28;20496;-49
2023/06/16 09:04:58;;;;;;;6.82;3.75;;;24.00;37.50;;;;;;4966031;28;20042;-47
2023/06/16 09:07:27;;;;;;;4.30;3.63;;;24.10;38.60;;;;;;4978781;28;20887;-46
2023/06/16 09:09:55;;;;;;;3.63;3.33;;;24.20;38.00;;;;;;4974034;28;20039;-46
2023/06/16 09:12:22;;;;;;;5.55;3.58;;;24.20;37.40;;;;;;4952848;28;20126;-47
2023/06/16 09:14:50;;;;;;;6.18;3.50;;;24.30;37.50;;;;;;4973110;28;20089;-45
2023/06/16 09:17:27;;;;;;;6.45;3.33;;;24.30;36.90;;;;;;4982699;28;20047;-47
2023/06/16 09:19:55;;;;;;;5.97;2.97;;;24.50;36.40;;;;;;4971112;28;20041;-45
2023/06/16 09:22:26;;;;;;;4.10;2.97;;;24.50;36.10;;;;;;4970025;28;20042;-46
2023/06/16 09:24:57;;;;;;;4.05;2.83;;;24.50;35.30;;;;;;4971120;28;20135;-49
2023/06/16 09:27:43;;;;;;;6.07;3.17;;;24.60;35.60;;;;;;4974444;28;20113;-47
2023/06/16 09:30:15;;;;;;;3.47;3.17;;;24.70;36.00;;;;;;4969638;28;20500;-46
2023/06/16 09:32:48;;;;;;;4.25;3.22;;;24.70;35.30;;;;;;4973472;28;20044;-45
2023/06/16 09:35:16;;;;;;;4.03;3.47;;;24.80;35.10;;;;;;4973497;28;20042;-49
2023/06/16 09:37:47;;;;;;;3.53;3.10;;;24.90;35.00;;;;;;4971058;28;20113;-50
2023/06/16 09:40:15;;;;;;;3.42;3.15;;;24.90;34.60;;;;;;4973745;28;20121;-50
2023/06/16 09:42:44;;;;;;;3.53;2.95;;;25.00;34.00;;;;;;4975937;28;20050;-47
2023/06/16 09:45:16;;;;;;;4.18;3.70;;;25.00;34.00;;;;;;4966429;28;20043;-48
2023/06/16 09:47:44;;;;;;;7.10;3.10;;;25.10;33.50;;;;;;4968883;28;20094;-47
2023/06/16 09:50:13;;;;;;;3.65;2.97;;;25.10;33.80;;;;;;4965894;28;20093;-48
2023/06/16 09:52:42;;;;;;;4.18;3.78;;;25.10;33.80;;;;;;4966180;28;20118;-47
2023/06/16 09:55:11;;;;;;;4.30;3.30;;;25.20;34.00;;;;;;4969555;28;20053;-50
2023/06/16 09:57:40;;;;;;;3.55;3.22;;;25.20;33.70;;;;;;4974212;28;20495;-46
2023/06/16 10:00:15;;;;;;;4.38;2.70;;;25.30;33.20;;;;;;4973442;28;20547;-47
2023/06/16 10:02:50;;;;;;;2.90;2.70;;;25.30;33.40;;;;;;4968317;28;20116;-47
2023/06/16 10:05:22;;;;;;;3.47;3.17;;;25.40;32.90;;;;;;4973373;28;20066;-50
2023/06/16 10:07:52;;;;;;;2.83;2.42;;;25.40;33.20;;;;;;4973596;28;20050;-48
2023/06/16 10:10:23;;;;;;;3.08;2.78;;;25.40;33.30;;;;;;4969570;28;20038;-50
2023/06/16 10:12:53;;;;;;;3.42;3.10;;;25.50;32.70;;;;;;4969877;28;20058;-46
2023/06/16 10:15:25;;;;;;;2.80;2.50;;;25.60;32.70;;;;;;4972398;28;20548;-48
2023/06/16 10:17:55;;;;;;;3.50;2.95;;;25.70;32.50;;;;;;4972091;28;20129;-46
2023/06/16 10:20:25;;;;;;;2.63;2.30;;;25.70;32.70;;;;;;4968220;28;20516;-47
2023/06/16 10:22:54;;;;;;;3.80;2.90;;;25.80;32.90;;;;;;4971159;28;20066;-49
2023/06/16 10:25:21;;;;;;;3.80;3.42;;;25.80;32.70;;;;;;4968956;28;20145;-50
2023/06/16 10:27:50;;;;;;;3.78;3.03;;;25.90;32.20;;;;;;4971610;28;20478;-50
2023/06/16 10:30:19;;;;;;;4.30;2.95;;;25.90;32.20;;;;;;4972482;28;20043;-50
2023/06/16 10:32:47;;;;;;;3.78;3.20;;;26.00;33.00;;;;;;4972034;28;20118;-48
2023/06/16 10:35:14;;;;;;;4.03;3.28;;;26.10;32.50;;;;;;4968271;28;20035;-46
2023/06/16 10:37:41;;;;;;;3.47;3.17;;;26.10;32.50;;;;;;4971702;28;20121;-46
2023/06/16 10:40:12;;;;;;;4.68;3.13;;;26.20;32.00;;;;;;4971865;28;20126;-46
2023/06/16 10:42:40;;;;;;;5.07;3.15;;;26.20;31.60;;;;;;4973573;28;20055;-47
2023/06/16 10:45:28;;;;;;;4.13;3.35;;;26.30;31.90;;;;;;4967127;28;20042;-47
2023/06/16 10:47:57;;;;;;;4.10;3.55;;;26.40;31.90;;;;;;4971648;28;20085;-46
2023/06/16 10:50:39;;;;;;;5.18;3.72;;;26.40;31.90;;;;;;4972713;28;20039;-47
2023/06/16 10:53:09;;;;;;;4.78;2.85;;;26.50;32.20;;;;;;4965890;28;20097;-48
2023/06/16 10:55:39;;;;;;;3.42;2.80;;;26.40;31.60;;;;;;4971477;28;20117;-46
2023/06/16 10:58:20;;;;;;;3.28;2.50;;;26.50;32.30;;;;;;4966037;28;20053;-49
2023/06/16 11:01:22;;;;;;;3.40;3.13;;;26.50;32.00;;;;;;4971829;28;20043;-47
2023/06/16 11:03:59;;;;;;;3.13;2.85;;;26.60;32.00;;;;;;4967239;28;20113;-49
2023/06/16 11:06:27;;;;;;;3.50;2.85;;;26.70;31.40;;;;;;4964184;28;20039;-50
2023/06/16 11:08:56;;;;;;;5.07;3.47;;;26.70;32.70;;;;;;4967884;28;20046;-47
2023/06/16 11:11:32;;;;;;;7.15;3.85;;;26.80;31.80;;;;;;4965635;28;20098;-47
2023/06/16 11:14:02;;;;;;;4.07;3.17;;;26.90;31.90;;;;;;4972060;28;20062;-46
2023/06/16 11:16:28;;;;;;;4.47;3.45;;;27.00;31.50;;;;;;4976783;28;20118;-51
2023/06/16 11:18:57;;;;;;;3.80;3.50;;;27.00;31.10;;;;;;4970424;28;20081;-46
2023/06/16 11:21:25;;;;;;;3.15;2.85;;;27.00;30.80;;;;;;4972700;28;20070;-49
2023/06/16 11:23:53;;;;;;;3.50;3.20;;;27.10;31.10;;;;;;4968290;28;20125;-47
2023/06/16 11:26:20;;;;;;;5.15;3.53;;;27.10;30.70;;;;;;4971652;28;20042;-49
2023/06/16 11:28:51;;;;;;;3.55;3.25;;;27.20;30.90;;;;;;4969129;28;20082;-49
2023/06/16 11:31:19;;;;;;;4.00;3.70;;;27.20;30.70;;;;;;4970483;28;20518;-48
2023/06/16 11:33:47;;;;;;;3.70;3.40;;;27.20;30.90;;;;;;4971358;28;20038;-49
2023/06/16 11:36:22;;;;;;;3.88;3.28;;;27.30;31.00;;;;;;4973767;28;20039;-49
2023/06/16 11:38:52;;;;;;;3.53;3.10;;;27.40;31.00;;;;;;4964961;28;20043;-49
2023/06/16 11:41:22;;;;;;;3.30;3.00;;;27.50;31.40;;;;;;4971489;28;20043;-49
2023/06/16 11:43:52;;;;;;;3.63;3.00;;;27.50;31.00;;;;;;4971335;28;20112;-50
2023/06/16 11:46:27;;;;;;;5.07;3.67;;;27.50;30.20;;;;;;4968846;28;20043;-50
2023/06/16 11:48:54;;;;;;;3.55;3.05;;;27.60;30.40;;;;;;4970711;28;20114;-50
2023/06/16 11:51:23;;;;;;;4.03;3.60;;;27.70;30.20;;;;;;4977299;28;20043;-50
2023/06/16 11:53:52;;;;;;;3.63;3.22;;;27.70;30.00;;;;;;4974482;28;20592;-48
2023/06/16 11:56:20;;;;;;;3.47;3.17;;;27.70;30.70;;;;;;4970567;28;20035;-48
2023/06/16 11:58:48;;;;;;;4.85;3.60;;;27.80;30.70;;;;;;4969859;28;20521;-49
2023/06/16 12:01:16;;;;;;;3.88;3.47;;;27.90;30.70;;;;;;4972103;28;20043;-47
2023/06/16 12:03:45;;;;;;;3.67;3.33;;;27.90;30.10;;;;;;4967072;28;20050;-47
2023/06/16 12:06:31;;;;;;;4.35;2.78;;;28.00;30.10;;;;;;4970946;28;20035;-47
2023/06/16 12:09:01;;;;;;;3.13;2.90;;;28.00;30.80;;;;;;4970642;28;20070;-47
2023/06/16 12:11:32;;;;;;;3.67;3.28;;;28.10;30.20;;;;;;4967610;28;20038;-48
2023/06/16 12:14:00;;;;;;;3.00;2.80;;;28.20;31.00;;;;;;4969780;28;20050;-49
2023/06/16 12:16:27;;;;;;;3.53;3.22;;;28.30;31.10;;;;;;4963584;28;20834;-45
2023/06/16 12:18:55;;;;;;;3.90;3.55;;;28.40;31.30;;;;;;4968615;28;20074;-49
2023/06/16 12:21:24;;;;;;;3.88;3.40;;;28.50;30.60;;;;;;4969760;28;20081;-48
2023/06/16 12:23:52;;;;;;;4.20;3.80;;;28.60;30.00;;;;;;4961609;28;20429;-51
2023/06/16 12:26:39;;;;;;;3.50;3.20;;;28.70;29.50;;;;;;4970726;28;20069;-50
2023/06/16 12:29:15;;;;;;;4.05;2.88;;;28.80;29.40;;;;;;4967668;28;20093;-51
2023/06/16 12:31:50;;;;;;;4.32;3.92;;;28.90;29.60;;;;;;4967411;28;20236;-48
2023/06/16 12:34:30;;;;;;;3.67;3.33;;;29.00;29.20;;;;;;4963649;28;20042;-48
2023/06/16 12:37:06;;;;;;;3.63;3.33;;;29.00;30.00;;;;;;4968490;28;20043;-50
2023/06/16 12:39:34;;;;;;;4.55;3.25;;;29.10;28.90;;;;;;4969402;28;20133;-48
2023/06/16 12:42:03;;;;;;;5.97;3.53;;;29.20;29.10;;;;;;4964502;28;20051;-51
2023/06/16 12:44:52;;;;;;;4.80;3.40;;;29.30;28.70;;;;;;4976180;28;20035;-49
2023/06/16 12:47:24;;;;;;;6.68;3.55;;;29.40;29.10;;;;;;4970307;28;20043;-48
2023/06/16 12:49:55;;;;;;;3.63;3.33;;;29.40;28.30;;;;;;4964397;28;20046;-50
2023/06/16 12:52:23;;;;;;;3.90;3.55;;;29.60;28.60;;;;;;4974767;28;20073;-48
2023/06/16 12:54:51;;;;;;;3.60;3.30;;;29.60;28.40;;;;;;4969099;28;20121;-51
2023/06/16 12:57:20;;;;;;;4.25;3.55;;;29.70;28.00;;;;;;4969001;28;20038;-49
2023/06/16 12:59:47;;;;;;;3.65;3.35;;;29.80;28.10;;;;;;4958640;28;20101;-51
2023/06/16 13:02:15;;;;;;;4.10;3.70;;;29.90;28.00;;;;;;4966470;28;20062;-49